createdAt,value
2023-01-28T00:10:20.406Z,100.00
2023-01-28T00:12:51.001Z,100.00
2023-01-28T00:15:19.250Z,100.00
2023-01-28T00:17:49.357Z,100.00
2023-01-28T00:20:17.427Z,100.00
2023-01-28T00:22:51.728Z,100.00
2023-01-28T00:25:20.067Z,100.00
2023-01-28T00:27:49.912Z,100.00
2023-01-28T00:30:18.926Z,100.00
2023-01-28T00:32:48.024Z,100.00
2023-01-28T00:35:16.379Z,100.00
2023-01-28T00:37:46.633Z,100.00
2023-01-28T00:40:14.797Z,100.00
2023-01-28T00:42:42.880Z,100.00
2023-01-28T00:45:11.015Z,100.00
2023-01-28T00:47:39.524Z,100.00
2023-01-28T00:50:07.752Z,100.00
2023-01-28T00:52:35.872Z,100.00
2023-01-28T00:55:04.771Z,100.00
2023-01-28T00:57:33.340Z,100.00
2023-01-28T01:00:02.053Z,100.00
2023-01-28T01:02:30.442Z,100.00
2023-01-28T01:04:58.495Z,100.00
2023-01-28T01:07:41.627Z,100.00
2023-01-28T01:10:15.049Z,100.00
2023-01-28T01:12:43.076Z,100.00
2023-01-28T01:15:11.405Z,100.00
2023-01-28T01:17:45.035Z,100.00
2023-01-28T01:20:15.279Z,100.00
2023-01-28T01:22:43.394Z,100.00
2023-01-28T01:25:12.953Z,100.00
2023-01-28T01:27:43.777Z,100.00
2023-01-28T01:30:12.704Z,100.00
2023-01-28T01:32:41.335Z,100.00
2023-01-28T01:35:10.064Z,100.00
2023-01-28T01:37:39.795Z,100.00
2023-01-28T01:40:09.476Z,100.00
2023-01-28T01:42:38.005Z,100.00
2023-01-28T01:45:08.054Z,100.00
2023-01-28T01:47:44.747Z,100.00
2023-01-28T01:50:15.577Z,100.00
2023-01-28T01:52:43.752Z,100.00
2023-01-28T01:55:14.202Z,100.00
2023-01-28T01:57:42.353Z,100.00
2023-01-28T02:00:10.984Z,100.00
2023-01-28T02:02:46.248Z,100.00
2023-01-28T05:58:05.578Z,100.00
2023-01-28T06:00:34.256Z,100.00
2023-01-28T06:03:02.863Z,100.00
2023-01-28T06:05:31.663Z,100.00
2023-01-28T06:08:00.449Z,100.00
2023-01-28T06:10:28.592Z,100.00
2023-01-28T06:12:57.267Z,100.00
2023-01-28T06:15:31.476Z,100.00
2023-01-28T06:18:15.464Z,100.00
2023-01-28T06:20:43.818Z,100.00
2023-01-28T06:23:12.368Z,100.00
2023-01-28T06:25:40.416Z,100.00
2023-01-28T06:28:13.180Z,100.00
2023-01-28T06:30:41.742Z,100.00
2023-01-28T06:33:09.754Z,100.00
2023-01-28T06:35:40.296Z,100.00
2023-01-28T06:38:08.597Z,100.00
2023-01-28T06:40:37.207Z,100.00
2023-01-28T06:43:05.658Z,100.00
2023-01-28T06:45:35.613Z,100.00
2023-01-28T06:48:05.664Z,100.00
2023-01-28T06:50:36.640Z,100.00
2023-01-28T06:53:05.539Z,100.00
2023-01-28T06:55:33.546Z,100.00
2023-01-28T06:58:02.231Z,100.00
2023-01-28T07:00:31.482Z,100.00
2023-01-28T07:02:59.580Z,100.00
2023-01-28T07:05:27.960Z,100.00
2023-01-28T07:07:56.942Z,100.00
2023-01-28T07:10:24.916Z,100.00
2023-01-28T07:12:53.957Z,100.00
2023-01-28T07:15:22.152Z,100.00
2023-01-28T07:17:50.198Z,100.00
2023-01-28T07:20:18.688Z,100.00
2023-01-28T07:22:47.095Z,100.00
2023-01-28T07:25:15.254Z,100.00
2023-01-28T07:27:50.862Z,100.00
2023-01-28T07:30:24.407Z,100.00
2023-01-28T07:32:54.984Z,100.00
2023-01-28T07:35:23.427Z,100.00
2023-01-28T07:37:55.669Z,100.00
2023-01-28T07:40:24.421Z,100.00
2023-01-28T07:42:53.391Z,100.00
2023-01-28T07:45:24.384Z,100.00
2023-01-28T07:48:01.992Z,100.00
2023-01-28T07:50:30.992Z,100.00
2023-01-28T07:52:59.174Z,100.00
2023-01-28T07:55:30.233Z,100.00
2023-01-28T07:58:00.323Z,100.00
2023-01-28T08:00:29.700Z,100.00
2023-01-28T08:02:59.273Z,100.00
2023-01-28T08:05:32.433Z,100.00
2023-01-28T08:08:01.115Z,100.00
2023-01-28T08:10:30.458Z,100.00
2023-01-28T08:12:59.732Z,100.00
2023-01-28T08:15:28.812Z,100.00
2023-01-28T08:17:58.958Z,100.00
2023-01-28T08:20:28.064Z,100.00
2023-01-28T08:23:13.063Z,100.00
2023-01-28T08:25:41.095Z,100.00
2023-01-28T08:28:10.599Z,100.00
2023-01-28T08:30:39.109Z,100.00
2023-01-28T08:33:09.053Z,100.00
2023-01-28T08:35:37.639Z,100.00
2023-01-28T08:38:06.379Z,100.00
2023-01-28T08:40:34.904Z,100.00
2023-01-28T08:43:03.541Z,100.00
2023-01-28T08:45:32.574Z,100.00
2023-01-28T08:48:02.073Z,100.00
2023-01-28T08:50:33.047Z,100.00
2023-01-28T08:53:12.762Z,100.00
2023-01-28T08:55:40.821Z,100.00
2023-01-28T08:58:13.700Z,100.00
2023-01-28T09:00:42.132Z,100.00
2023-01-28T09:03:10.304Z,100.00
2023-01-28T09:05:38.933Z,100.00
2023-01-28T09:08:10.020Z,100.00
2023-01-28T09:10:38.733Z,100.00
2023-01-28T09:13:07.953Z,100.00
2023-01-28T09:15:36.072Z,100.00
2023-01-28T09:18:05.373Z,99.91
2023-01-28T09:20:33.770Z,99.90
2023-01-28T09:23:01.905Z,99.67
2023-01-28T09:25:30.499Z,98.65
2023-01-28T09:27:58.670Z,98.87
2023-01-28T09:30:26.829Z,98.54
2023-01-28T09:32:55.252Z,98.24
2023-01-28T09:35:23.410Z,97.56
2023-01-28T09:37:52.141Z,96.99
2023-01-28T09:40:40.665Z,96.97
2023-01-28T09:43:33.806Z,96.66
2023-01-28T09:46:05.905Z,96.58
2023-01-28T09:48:45.414Z,95.32
2023-01-28T09:51:33.164Z,94.52
2023-01-28T13:57:25.147Z,67.08
2023-01-28T14:00:26.111Z,66.69
2023-01-28T14:03:14.197Z,66.50
2023-01-28T14:06:18.717Z,66.67
2023-01-28T14:09:14.766Z,66.51
2023-01-28T14:11:58.068Z,65.70
2023-01-28T14:14:26.083Z,65.99
2023-01-28T14:17:04.067Z,65.79
2023-01-28T14:19:34.192Z,65.96
2023-01-28T14:22:09.371Z,65.47
2023-01-28T14:24:38.539Z,66.08
2023-01-28T14:27:37.641Z,65.77
2023-01-28T14:30:16.537Z,65.62
2023-01-28T14:32:49.240Z,66.22
2023-01-28T14:35:33.965Z,66.58
2023-01-28T14:38:08.016Z,66.38
2023-01-28T14:40:38.085Z,66.54
2023-01-28T14:43:08.703Z,66.63
2023-01-28T14:46:36.088Z,66.75
2023-01-28T14:49:19.280Z,66.81
2023-01-28T14:52:13.023Z,66.94
2023-01-28T14:54:54.414Z,67.25
2023-01-28T14:58:02.583Z,67.55
2023-01-28T15:00:34.453Z,67.60
2023-01-28T15:03:27.154Z,67.42
2023-01-28T15:06:12.201Z,67.61
2023-01-28T15:08:43.241Z,67.79
2023-01-28T15:11:13.790Z,67.71
2023-01-28T15:13:50.664Z,67.78
2023-01-28T15:16:24.499Z,67.74
2023-01-28T15:18:56.591Z,67.81
2023-01-28T15:21:30.447Z,68.16
2023-01-28T15:24:00.446Z,68.48
2023-01-28T15:26:33.256Z,68.62
2023-01-28T15:29:01.632Z,68.59
2023-01-28T15:31:34.998Z,68.88
2023-01-28T15:34:04.375Z,69.13
2023-01-28T15:36:33.018Z,69.28
2023-01-28T15:39:01.575Z,69.37
2023-01-28T15:41:39.521Z,69.76
2023-01-28T15:44:39.251Z,70.11
2023-01-28T15:47:32.567Z,70.60
2023-01-28T15:50:04.851Z,71.10
2023-01-28T15:52:38.387Z,71.61
2023-01-28T15:55:07.736Z,71.94
2023-01-28T15:57:35.799Z,72.14
2023-01-28T16:00:14.236Z,72.73
2023-01-28T16:02:52.406Z,72.98
2023-01-28T16:05:32.002Z,73.34
2023-01-28T16:08:02.446Z,73.59
2023-01-28T16:10:31.551Z,73.86
2023-01-28T16:13:26.568Z,74.08
2023-01-28T16:15:56.802Z,74.55
2023-01-28T16:18:41.613Z,74.83
2023-01-28T16:21:12.844Z,75.10
2023-01-28T16:23:40.963Z,75.49
2023-01-28T16:26:26.115Z,76.34
2023-01-28T16:29:20.853Z,77.15
2023-01-28T16:31:48.967Z,77.40
2023-01-28T16:34:17.228Z,77.74
2023-01-28T16:36:45.475Z,78.26
2023-01-28T16:39:14.203Z,78.29
2023-01-28T16:41:44.084Z,78.63
2023-01-28T16:44:13.929Z,79.02
2023-01-28T16:46:42.634Z,79.38
2023-01-28T16:49:15.326Z,79.55
2023-01-28T16:51:44.168Z,79.71
2023-01-28T16:54:13.844Z,79.97
2023-01-28T16:56:46.444Z,80.04
2023-01-28T16:59:16.160Z,80.62
2023-01-28T17:01:45.843Z,80.76
2023-01-28T17:04:13.989Z,80.80
2023-01-28T17:06:43.287Z,80.73
2023-01-28T17:09:12.883Z,80.71
2023-01-28T17:11:41.839Z,80.83
2023-01-28T17:14:11.239Z,80.79
2023-01-28T17:16:40.144Z,80.91
2023-01-28T17:19:08.276Z,81.01
2023-01-28T17:21:37.815Z,81.16
2023-01-28T17:24:06.545Z,81.42
2023-01-28T17:26:36.547Z,81.73
2023-01-28T17:29:05.646Z,81.97
2023-01-28T17:31:36.432Z,81.81
2023-01-28T17:34:08.187Z,81.88
2023-01-28T17:36:36.452Z,81.78
2023-01-28T17:39:06.894Z,81.93
2023-01-28T17:41:36.372Z,81.97
2023-01-28T17:44:04.663Z,82.21
2023-01-28T17:46:32.932Z,82.28
2023-01-28T17:49:02.048Z,82.61
2023-01-28T17:51:31.075Z,82.86
2023-01-28T17:53:59.211Z,82.84
2023-01-28T17:56:29.912Z,82.85
2023-01-28T21:59:39.827Z,99.64
2023-01-28T22:02:32.077Z,99.72
2023-01-28T22:05:07.196Z,99.81
2023-01-28T22:07:40.766Z,100.00
2023-01-28T22:10:10.755Z,99.91
2023-01-28T22:12:41.003Z,99.95
2023-01-28T22:15:10.112Z,99.77
2023-01-28T22:17:38.427Z,99.91
2023-01-28T22:20:07.455Z,99.74
2023-01-28T22:22:36.541Z,99.51
2023-01-28T22:25:08.186Z,99.26
2023-01-28T22:27:36.371Z,99.11
2023-01-28T22:30:06.262Z,99.37
2023-01-28T22:32:34.860Z,98.95
2023-01-28T22:35:04.810Z,98.91
2023-01-28T22:37:35.052Z,99.21
2023-01-28T22:40:03.203Z,99.06
2023-01-28T22:42:34.787Z,99.29
2023-01-28T22:45:03.863Z,99.36
2023-01-28T22:47:32.055Z,99.60
2023-01-28T22:50:00.703Z,99.83
2023-01-28T22:52:28.984Z,99.97
2023-01-28T22:54:57.152Z,99.99
2023-01-28T22:57:25.152Z,99.95
2023-01-28T23:00:00.029Z,99.98
2023-01-28T23:02:29.114Z,100.00
2023-01-28T23:04:57.252Z,100.00
2023-01-28T23:07:25.905Z,100.00
2023-01-28T23:09:53.966Z,100.00
2023-01-28T23:12:23.115Z,100.00
2023-01-28T23:15:10.208Z,100.00
2023-01-28T23:17:57.194Z,100.00
2023-01-28T23:20:44.536Z,100.00
2023-01-28T23:23:35.403Z,100.00
2023-01-28T23:26:04.653Z,100.00
2023-01-28T23:28:34.049Z,100.00
2023-01-28T23:31:02.063Z,100.00
2023-01-28T23:33:31.753Z,100.00
2023-01-28T23:36:00.178Z,100.00
2023-01-28T23:38:28.778Z,100.00
2023-01-28T23:40:57.042Z,100.00
2023-01-28T23:43:24.967Z,100.00
2023-01-28T23:45:53.092Z,100.00
2023-01-28T23:48:21.186Z,100.00
2023-01-28T23:50:54.577Z,100.00
2023-01-28T23:53:23.576Z,100.00
2023-01-28T23:55:51.558Z,100.00
2023-01-28T23:58:33.537Z,100.00
